Time;durP1;ratioP1;P1;durP2;ratioP2;P2;SDS_P1;SDS_P2;PMS_P1;PMS_P2;Temp;Humidity;BMP_temperature;BMP_pressure;BME280_temperature;BME280_humidity;BME280_pressure;Samples;Min_cycle;Max_cycle;Signal;HPM_P1;HPM_P2
2022/02/28 00:01:22;;;;;;;12.10;6.32;;;1.80;91.30;;;;;;5081436;28;20040;-68
2022/02/28 00:03:56;;;;;;;13.93;6.63;;;1.80;91.40;;;;;;5060135;28;20506;-68
2022/02/28 00:06:24;;;;;;;11.80;6.40;;;1.70;91.30;;;;;;5079309;28;20047;-68
2022/02/28 00:08:50;;;;;;;15.73;7.05;;;1.60;91.40;;;;;;5079721;28;20147;-68
2022/02/28 00:11:16;;;;;;;10.65;6.10;;;1.60;91.50;;;;;;5060996;28;20504;-68
2022/02/28 00:13:42;;;;;;;13.13;6.93;;;1.50;91.60;;;;;;5061657;28;20047;-68
2022/02/28 00:16:08;;;;;;;11.35;6.20;;;1.50;91.80;;;;;;5060416;28;20078;-68
2022/02/28 00:18:34;;;;;;;12.55;6.55;;;1.40;91.80;;;;;;5062455;28;20052;-68
2022/02/28 00:21:00;;;;;;;11.85;6.85;;;1.40;91.90;;;;;;5063354;28;20036;-68
2022/02/28 00:23:26;;;;;;;12.80;6.93;;;1.40;92.10;;;;;;5057371;28;20048;-68
2022/02/28 00:25:53;;;;;;;12.88;7.05;;;1.30;92.10;;;;;;5039219;28;20090;-68
2022/02/28 00:28:19;;;;;;;11.45;7.05;;;1.40;92.60;;;;;;5074688;28;20060;-68
2022/02/28 00:30:45;;;;;;;12.52;7.05;;;1.30;92.50;;;;;;5055751;28;20521;-68
2022/02/28 00:33:11;;;;;;;11.45;6.85;;;1.30;92.90;;;;;;5062785;28;20131;-68
2022/02/28 00:35:38;;;;;;;12.52;6.72;;;1.30;92.60;;;;;;5057256;28;20040;-68
2022/02/28 00:38:04;;;;;;;12.82;6.80;;;1.40;92.60;;;;;;5064685;28;20462;-68
2022/02/28 00:40:30;;;;;;;11.25;7.07;;;1.40;92.80;;;;;;5078005;28;20048;-68
2022/02/28 00:42:56;;;;;;;11.52;6.82;;;1.40;92.80;;;;;;5059276;28;20495;-68
2022/02/28 00:45:22;;;;;;;10.07;7.10;;;1.40;92.80;;;;;;5059464;28;20040;-68
2022/02/28 00:47:47;;;;;;;12.55;7.00;;;1.40;92.90;;;;;;5057591;28;20121;-68
2022/02/28 00:50:13;;;;;;;10.70;6.40;;;1.30;92.90;;;;;;5061820;28;20060;-68
2022/02/28 00:52:40;;;;;;;12.45;7.03;;;1.30;92.90;;;;;;5060662;28;20052;-68
2022/02/28 00:58:49;;;;;;;11.63;7.68;;;1.20;93.00;;;;;;5078520;28;20082;-68
2022/02/28 01:01:15;;;;;;;14.65;7.07;;;1.10;93.00;;;;;;5081575;28;20059;-68
2022/02/28 01:03:41;;;;;;;14.60;7.20;;;1.10;93.20;;;;;;5065048;28;20079;-68
2022/02/28 01:06:07;;;;;;;9.52;6.35;;;1.10;93.30;;;;;;5078642;28;20138;-68
2022/02/28 01:08:32;;;;;;;12.27;7.20;;;1.00;93.30;;;;;;5079991;28;20033;-68
2022/02/28 01:10:58;;;;;;;13.02;6.82;;;1.10;93.40;;;;;;5059525;28;20044;-68
2022/02/28 01:13:24;;;;;;;14.23;7.13;;;1.10;93.40;;;;;;5077535;28;20037;-68
2022/02/28 01:15:50;;;;;;;16.38;7.75;;;1.10;93.90;;;;;;5059531;28;20028;-68
2022/02/28 01:18:16;;;;;;;13.55;7.15;;;1.10;93.70;;;;;;5061532;28;20045;-68
2022/02/28 01:20:42;;;;;;;15.68;8.13;;;1.10;93.70;;;;;;5063975;28;20040;-68
2022/02/28 01:23:08;;;;;;;11.10;7.18;;;1.10;93.70;;;;;;5060934;28;20045;-68
2022/02/28 01:25:34;;;;;;;15.40;6.90;;;1.10;93.80;;;;;;5061847;28;20067;-68
2022/02/28 01:27:59;;;;;;;13.20;7.30;;;1.20;93.80;;;;;;5062040;28;20047;-68
2022/02/28 01:30:25;;;;;;;11.90;7.53;;;1.10;94.00;;;;;;5078081;28;20076;-68
2022/02/28 01:32:51;;;;;;;13.88;7.47;;;1.20;94.10;;;;;;5081917;28;20043;-68
2022/02/28 01:35:17;;;;;;;11.30;7.47;;;1.20;94.10;;;;;;5079628;28;20036;-68
2022/02/28 01:37:42;;;;;;;15.32;7.70;;;1.10;94.10;;;;;;5060600;28;20043;-68
2022/02/28 01:40:11;;;;;;;15.77;8.10;;;1.10;94.10;;;;;;5057217;28;20079;-68
2022/02/28 01:42:37;;;;;;;11.68;6.80;;;1.10;94.10;;;;;;5046479;28;20404;-68
2022/02/28 01:45:03;;;;;;;14.40;7.47;;;1.10;94.20;;;;;;5061579;28;20043;-68
2022/02/28 01:47:29;;;;;;;13.45;8.05;;;1.10;94.10;;;;;;5077749;28;20527;-68
2022/02/28 01:49:54;;;;;;;12.95;7.97;;;1.00;94.50;;;;;;5061745;28;20209;-68
2022/02/28 01:52:24;;;;;;;10.75;7.15;;;1.00;94.40;;;;;;5061880;28;20052;-68
2022/02/28 01:54:50;;;;;;;10.68;6.97;;;1.00;94.50;;;;;;5056866;28;20028;-68
2022/02/28 01:57:16;;;;;;;11.70;7.85;;;1.00;94.50;;;;;;5046869;28;20190;-68
2022/02/28 01:59:42;;;;;;;11.00;7.20;;;0.90;94.40;;;;;;5063030;28;20047;-68
2022/02/28 02:02:08;;;;;;;11.40;7.63;;;0.90;94.80;;;;;;5063093;28;20318;-68
2022/02/28 02:04:35;;;;;;;11.35;7.40;;;0.80;94.90;;;;;;5085623;28;20483;-68
2022/02/28 02:07:01;;;;;;;13.82;8.25;;;0.90;94.90;;;;;;5056748;28;20043;-68
2022/02/28 02:09:28;;;;;;;12.38;7.90;;;0.90;95.20;;;;;;5081454;28;20035;-68
2022/02/28 02:11:54;;;;;;;10.40;7.47;;;0.80;95.10;;;;;;5062183;28;20384;-68
2022/02/28 02:14:19;;;;;;;13.18;7.53;;;0.90;95.30;;;;;;5058020;28;20040;-68
2022/02/28 02:16:45;;;;;;;13.90;7.68;;;0.90;95.10;;;;;;5062655;28;20040;-68
2022/02/28 02:19:11;;;;;;;11.27;8.27;;;0.90;95.10;;;;;;5047130;28;20482;-68
2022/02/28 02:21:37;;;;;;;11.10;7.32;;;0.90;95.10;;;;;;5064181;28;20483;-68
2022/02/28 02:24:03;;;;;;;11.48;6.90;;;0.90;95.40;;;;;;5064543;28;20037;-68
2022/02/28 02:26:28;;;;;;;11.30;7.65;;;0.90;95.60;;;;;;5063209;28;20052;-68
2022/02/28 02:28:54;;;;;;;16.25;8.15;;;0.90;95.40;;;;;;5062167;28;20040;-68
2022/02/28 02:31:20;;;;;;;10.88;7.57;;;0.90;95.40;;;;;;5072018;28;20039;-68
2022/02/28 02:33:46;;;;;;;11.23;6.97;;;0.90;95.50;;;;;;5063021;28;20051;-68
2022/02/28 02:36:12;;;;;;;12.25;7.25;;;0.90;95.40;;;;;;5063559;28;20143;-68
2022/02/28 02:38:38;;;;;;;13.10;7.13;;;0.80;95.50;;;;;;5061073;28;20047;-68
2022/02/28 02:41:07;;;;;;;11.50;7.10;;;0.90;95.50;;;;;;5064405;28;20111;-68
2022/02/28 02:43:34;;;;;;;11.65;7.50;;;0.90;95.50;;;;;;5065301;28;20044;-68
2022/02/28 02:46:00;;;;;;;12.55;7.18;;;0.90;95.50;;;;;;5060109;28;20044;-68
2022/02/28 02:48:26;;;;;;;10.27;7.22;;;0.90;95.50;;;;;;5067786;28;20549;-68
2022/02/28 02:50:53;;;;;;;12.23;6.85;;;0.90;95.80;;;;;;5063166;28;20050;-68
2022/02/28 02:53:19;;;;;;;10.85;7.00;;;0.90;95.60;;;;;;5062188;28;20488;-72
2022/02/28 02:55:46;;;;;;;10.40;6.72;;;1.00;95.70;;;;;;5062065;28;20115;-68
2022/02/28 02:58:13;;;;;;;9.38;6.45;;;1.00;95.50;;;;;;5079119;28;20066;-68
2022/02/28 03:00:41;;;;;;;10.43;7.28;;;1.00;95.50;;;;;;5081868;28;20044;-68
2022/02/28 03:03:09;;;;;;;11.27;7.13;;;1.00;95.50;;;;;;5052090;28;20154;-68
2022/02/28 03:05:35;;;;;;;13.23;6.95;;;0.90;95.40;;;;;;5082067;28;20047;-68
2022/02/28 03:08:01;;;;;;;9.57;6.85;;;0.90;95.60;;;;;;5029540;28;20044;-68
2022/02/28 03:10:26;;;;;;;10.15;6.53;;;0.90;95.50;;;;;;5061206;28;20040;-68
2022/02/28 03:12:52;;;;;;;11.45;7.40;;;0.90;95.60;;;;;;5063405;28;20478;-68
2022/02/28 03:15:19;;;;;;;14.80;7.20;;;0.90;95.50;;;;;;5080956;28;20051;-68
2022/02/28 03:17:44;;;;;;;13.23;7.30;;;0.80;95.50;;;;;;5059642;28;20047;-68
2022/02/28 03:20:11;;;;;;;11.68;7.18;;;0.80;95.60;;;;;;5062011;28;20657;-68
2022/02/28 03:22:37;;;;;;;11.07;6.97;;;0.80;95.60;;;;;;5078496;28;20074;-68
2022/02/28 03:25:04;;;;;;;11.18;7.57;;;0.80;95.60;;;;;;5063243;28;20114;-68
2022/02/28 03:27:30;;;;;;;12.50;7.05;;;0.80;95.60;;;;;;5080895;28;20405;-68
2022/02/28 03:29:56;;;;;;;10.13;6.95;;;0.80;95.50;;;;;;5057465;28;20155;-68
2022/02/28 03:32:22;;;;;;;11.88;7.53;;;0.70;95.80;;;;;;5077882;28;20067;-68
2022/02/28 03:34:48;;;;;;;10.55;7.25;;;0.60;95.70;;;;;;5061766;28;20036;-68
2022/02/28 03:37:14;;;;;;;10.77;6.80;;;0.60;95.80;;;;;;5079674;28;20046;-68
2022/02/28 03:39:39;;;;;;;13.50;7.45;;;0.60;95.70;;;;;;5066354;28;20105;-68
2022/02/28 03:42:05;;;;;;;10.43;6.93;;;0.50;95.80;;;;;;5077139;28;20032;-67
2022/02/28 03:44:31;;;;;;;10.13;6.93;;;0.50;95.80;;;;;;5083926;28;20047;-67
2022/02/28 03:46:57;;;;;;;10.95;7.20;;;0.40;95.90;;;;;;5062344;28;20032;-67
2022/02/28 03:49:23;;;;;;;9.70;7.05;;;0.40;96.00;;;;;;5063276;28;20123;-68
2022/02/28 03:51:48;;;;;;;13.48;6.82;;;0.30;96.00;;;;;;5061576;28;20056;-68
2022/02/28 03:54:14;;;;;;;11.23;7.32;;;0.30;96.10;;;;;;5075328;28;20032;-67
2022/02/28 03:56:44;;;;;;;10.27;7.45;;;0.20;96.10;;;;;;5079701;28;20126;-67
2022/02/28 03:59:12;;;;;;;10.18;7.13;;;0.20;96.20;;;;;;5064293;28;20044;-68
2022/02/28 04:01:37;;;;;;;13.50;7.47;;;0.20;96.20;;;;;;5061298;28;20082;-68
2022/02/28 04:04:04;;;;;;;12.23;8.20;;;0.20;96.30;;;;;;5060612;28;20072;-68
2022/02/28 04:06:31;;;;;;;10.75;7.40;;;0.10;96.40;;;;;;5058060;28;20032;-68
2022/02/28 04:08:58;;;;;;;11.88;7.57;;;0.10;96.60;;;;;;5079555;28;20040;-67
2022/02/28 04:11:23;;;;;;;13.05;7.00;;;0.10;96.60;;;;;;5057042;28;20113;-67
2022/02/28 04:13:49;;;;;;;12.57;7.60;;;0.00;96.70;;;;;;5062390;28;20043;-68
2022/02/28 04:16:15;;;;;;;12.48;7.72;;;0.00;96.70;;;;;;5062233;28;20040;-68
2022/02/28 04:18:41;;;;;;;11.80;7.07;;;-0.10;96.70;;;;;;5061703;28;20480;-68
2022/02/28 04:21:06;;;;;;;11.75;6.90;;;-0.10;96.70;;;;;;5077930;28;20048;-68
2022/02/28 04:23:32;;;;;;;11.32;7.60;;;-0.10;96.80;;;;;;5062955;28;20047;-67
2022/02/28 04:26:00;;;;;;;11.45;7.13;;;-0.20;96.80;;;;;;5078611;28;20049;-68
2022/02/28 04:28:26;;;;;;;11.25;7.80;;;-0.30;96.80;;;;;;5082936;28;20040;-67
2022/02/28 04:30:51;;;;;;;11.63;7.63;;;-0.40;96.80;;;;;;5075877;28;20040;-68
2022/02/28 04:33:17;;;;;;;12.77;7.93;;;-0.40;96.80;;;;;;5057189;28;20090;-68
2022/02/28 04:35:43;;;;;;;12.15;7.72;;;-0.40;96.90;;;;;;5059910;28;20035;-68
2022/02/28 04:38:09;;;;;;;14.20;8.23;;;-0.40;97.00;;;;;;5061027;28;20457;-68
2022/02/28 04:40:35;;;;;;;13.35;8.48;;;-0.50;97.10;;;;;;5064540;28;20521;-68
2022/02/28 04:43:01;;;;;;;12.95;7.47;;;-0.50;97.10;;;;;;5057028;28;20416;-68
2022/02/28 04:45:27;;;;;;;12.70;8.38;;;-0.60;97.20;;;;;;5059033;28;20043;-68
2022/02/28 04:47:53;;;;;;;11.15;7.43;;;-0.60;97.30;;;;;;5059943;28;20314;-68
2022/02/28 04:50:18;;;;;;;12.82;7.75;;;-0.60;97.30;;;;;;5055750;28;20110;-68
2022/02/28 04:52:44;;;;;;;12.10;7.93;;;-0.70;97.30;;;;;;5078443;28;20045;-68
2022/02/28 04:55:10;;;;;;;11.88;8.45;;;-0.70;97.40;;;;;;5056144;28;20043;-68
2022/02/28 04:57:40;;;;;;;14.02;8.10;;;-0.70;97.50;;;;;;5061585;28;20697;-68
2022/02/28 05:00:07;;;;;;;14.63;8.25;;;-0.80;97.50;;;;;;5078836;28;20036;-68
2022/02/28 05:02:33;;;;;;;13.52;8.75;;;-0.70;97.70;;;;;;5057447;28;20089;-68
2022/02/28 05:05:00;;;;;;;13.43;8.70;;;-0.80;97.70;;;;;;5044190;28;20040;-68
2022/02/28 05:07:26;;;;;;;12.40;8.65;;;-0.80;97.80;;;;;;5059430;28;20090;-68
2022/02/28 05:09:52;;;;;;;13.95;8.43;;;-0.80;97.80;;;;;;5061364;28;20043;-68
2022/02/28 05:12:17;;;;;;;15.82;8.70;;;-0.70;98.00;;;;;;5063307;28;20443;-68
2022/02/28 05:14:43;;;;;;;15.82;8.75;;;-0.80;98.00;;;;;;5044277;28;20064;-68
2022/02/28 05:17:09;;;;;;;13.88;8.93;;;-0.80;98.10;;;;;;5078838;28;20412;-68
2022/02/28 05:19:34;;;;;;;15.52;8.63;;;-0.80;98.20;;;;;;5045048;28;20040;-68
2022/02/28 05:22:03;;;;;;;14.32;8.93;;;-0.90;98.20;;;;;;5057992;28;20453;-68
2022/02/28 05:24:33;;;;;;;13.38;9.15;;;-0.90;98.40;;;;;;5063220;28;20093;-68
2022/02/28 05:27:00;;;;;;;14.63;9.43;;;-0.80;98.50;;;;;;5057797;28;20107;-68
2022/02/28 05:29:27;;;;;;;13.85;8.85;;;-0.80;98.60;;;;;;5060628;28;20035;-68
2022/02/28 05:31:53;;;;;;;16.80;9.30;;;-0.80;98.70;;;;;;5059184;28;20097;-68
2022/02/28 05:34:19;;;;;;;15.27;9.27;;;-0.80;98.80;;;;;;5055034;28;20032;-68
2022/02/28 05:36:45;;;;;;;15.63;9.65;;;-0.80;98.90;;;;;;5079877;28;20032;-68
2022/02/28 05:39:11;;;;;;;13.27;9.98;;;-0.80;99.10;;;;;;5058768;28;20043;-68
2022/02/28 05:41:36;;;;;;;17.17;10.38;;;-0.80;99.20;;;;;;5059968;28;20045;-68
2022/02/28 05:44:02;;;;;;;15.27;9.13;;;-0.80;99.90;;;;;;5060990;28;20412;-67
2022/02/28 05:46:28;;;;;;;15.30;9.65;;;-0.80;99.90;;;;;;5056496;28;20502;-68
2022/02/28 05:48:54;;;;;;;16.05;10.05;;;-0.70;99.90;;;;;;5063292;28;20029;-68
2022/02/28 05:51:19;;;;;;;14.43;10.38;;;-0.70;99.90;;;;;;5056436;28;20032;-68
2022/02/28 05:53:45;;;;;;;13.57;9.52;;;-0.70;99.90;;;;;;5065759;28;20059;-68
2022/02/28 05:56:11;;;;;;;18.00;9.98;;;-0.60;99.90;;;;;;5049591;28;20075;-68
2022/02/28 05:58:37;;;;;;;11.70;8.68;;;-0.50;99.90;;;;;;5062599;28;20042;-68
2022/02/28 06:01:03;;;;;;;14.27;9.15;;;-0.60;99.90;;;;;;5063904;28;20040;-68
2022/02/28 06:03:29;;;;;;;14.98;10.02;;;-0.60;99.90;;;;;;5063164;28;20045;-68
2022/02/28 06:05:54;;;;;;;13.48;9.07;;;-0.60;99.90;;;;;;5063444;28;20044;-68
2022/02/28 06:08:20;;;;;;;13.18;9.27;;;-0.50;99.90;;;;;;5065606;28;20040;-68
2022/02/28 06:10:46;;;;;;;14.00;9.40;;;-0.50;99.90;;;;;;5062159;28;20036;-68
2022/02/28 06:13:11;;;;;;;11.93;8.65;;;-0.50;99.90;;;;;;5064311;28;20504;-68
2022/02/28 06:15:41;;;;;;;18.10;9.73;;;-0.50;99.90;;;;;;5061553;28;20059;-68
2022/02/28 06:18:09;;;;;;;14.05;9.43;;;-0.50;99.90;;;;;;5062925;28;20040;-68
2022/02/28 06:20:39;;;;;;;14.40;9.45;;;-0.50;99.90;;;;;;5067458;28;20041;-68
2022/02/28 06:23:09;;;;;;;15.32;8.98;;;-0.50;99.90;;;;;;5063274;28;20048;-68
2022/02/28 06:25:34;;;;;;;14.60;10.10;;;-0.50;99.90;;;;;;5077408;28;20055;-68
2022/02/28 06:28:00;;;;;;;14.57;9.07;;;-0.50;99.90;;;;;;5064785;28;20052;-68
2022/02/28 06:30:26;;;;;;;14.68;10.18;;;-0.50;99.90;;;;;;5049793;28;20197;-68
2022/02/28 06:32:52;;;;;;;15.57;9.90;;;-0.50;99.90;;;;;;5060361;28;20087;-68
2022/02/28 06:35:18;;;;;;;16.25;9.25;;;-0.50;99.90;;;;;;5068845;28;20047;-68
2022/02/28 06:37:43;;;;;;;16.02;9.63;;;-0.50;99.90;;;;;;5083261;28;20114;-68
2022/02/28 06:40:10;;;;;;;14.10;9.85;;;-0.50;99.90;;;;;;5065728;28;20536;-68
2022/02/28 06:42:35;;;;;;;17.73;11.25;;;-0.50;99.90;;;;;;5065078;28;20086;-68
2022/02/28 06:45:02;;;;;;;15.20;9.88;;;-0.50;99.90;;;;;;5080655;28;20086;-68
2022/02/28 06:47:28;;;;;;;16.02;10.32;;;-0.50;99.90;;;;;;5060669;28;20055;-68
2022/02/28 06:49:53;;;;;;;13.98;9.48;;;-0.40;99.90;;;;;;5063773;28;20040;-68
2022/02/28 06:52:19;;;;;;;12.98;9.38;;;-0.40;99.90;;;;;;5065452;28;20071;-68
2022/02/28 06:54:44;;;;;;;14.15;10.05;;;-0.30;99.90;;;;;;5064897;28;20058;-68
2022/02/28 06:57:12;;;;;;;13.88;9.40;;;-0.30;99.90;;;;;;5068640;28;20410;-67
2022/02/28 06:59:37;;;;;;;14.50;10.15;;;-0.40;99.90;;;;;;5062685;28;20571;-67
2022/02/28 07:02:03;;;;;;;13.95;10.18;;;-0.30;99.90;;;;;;5064769;28;20054;-67
2022/02/28 07:04:29;;;;;;;13.57;9.40;;;-0.20;99.90;;;;;;5039167;28;20048;-68
2022/02/28 07:06:55;;;;;;;14.77;10.10;;;-0.20;99.90;;;;;;5063574;28;20420;-68
2022/02/28 07:09:21;;;;;;;17.10;10.20;;;-0.10;99.90;;;;;;5065816;28;20036;-68
2022/02/28 07:11:46;;;;;;;15.63;10.50;;;-0.10;99.90;;;;;;5080441;28;20036;-68
2022/02/28 07:14:12;;;;;;;15.25;10.40;;;0.00;99.90;;;;;;5064789;28;20044;-68
2022/02/28 07:16:38;;;;;;;13.95;9.80;;;0.10;99.90;;;;;;5060611;28;20047;-68
2022/02/28 07:19:04;;;;;;;15.50;10.07;;;0.10;99.90;;;;;;5081611;28;20480;-68
2022/02/28 07:21:30;;;;;;;11.50;9.52;;;0.20;99.90;;;;;;5058358;28;20060;-68
2022/02/28 07:23:57;;;;;;;13.30;9.82;;;0.30;99.90;;;;;;5060714;28;20528;-68
2022/02/28 07:26:25;;;;;;;14.45;9.50;;;0.40;99.90;;;;;;5058880;28;20044;-67
2022/02/28 07:28:51;;;;;;;14.52;9.55;;;0.60;99.90;;;;;;5063683;28;20047;-67
2022/02/28 07:31:19;;;;;;;13.75;9.68;;;0.70;99.90;;;;;;5062852;28;20028;-68
2022/02/28 07:33:45;;;;;;;13.70;9.50;;;0.80;99.90;;;;;;5083436;28;20164;-68
2022/02/28 07:36:11;;;;;;;14.77;10.32;;;1.00;99.90;;;;;;5061008;28;20051;-68
2022/02/28 07:38:39;;;;;;;18.23;8.68;;;1.30;99.90;;;;;;5083162;28;20032;-68
2022/02/28 07:41:05;;;;;;;14.25;10.00;;;1.80;99.90;;;;;;5083569;28;20135;-68
2022/02/28 07:43:31;;;;;;;14.82;9.95;;;2.60;99.90;;;;;;5082335;28;20102;-68
2022/02/28 07:45:56;;;;;;;14.27;8.45;;;3.50;99.90;;;;;;5063574;28;20031;-68
2022/02/28 07:48:22;;;;;;;10.70;8.50;;;4.50;99.90;;;;;;5080981;28;20033;-68
2022/02/28 07:50:48;;;;;;;12.07;9.25;;;5.40;99.90;;;;;;5066239;28;20043;-68
2022/02/28 07:53:14;;;;;;;10.38;7.72;;;6.40;99.90;;;;;;5064638;28;20052;-68
2022/02/28 07:55:39;;;;;;;11.32;8.48;;;7.30;97.40;;;;;;5085106;28;20036;-68
2022/02/28 07:58:05;;;;;;;11.77;8.30;;;8.00;95.40;;;;;;5065507;28;20492;-68
2022/02/28 08:00:32;;;;;;;10.30;7.68;;;8.70;93.40;;;;;;5064668;28;20047;-68
2022/02/28 08:02:58;;;;;;;9.45;7.90;;;9.30;91.60;;;;;;5043326;28;20044;-68
2022/02/28 08:05:25;;;;;;;9.98;7.55;;;9.80;90.20;;;;;;5066328;28;20037;-68
2022/02/28 08:07:50;;;;;;;10.95;7.82;;;10.30;86.40;;;;;;5075010;28;20076;-68
2022/02/28 08:10:16;;;;;;;8.70;6.90;;;10.60;82.60;;;;;;5065483;28;20079;-68
2022/02/28 08:12:42;;;;;;;9.55;7.28;;;10.90;80.60;;;;;;5063168;28;20865;-68
2022/02/28 08:15:08;;;;;;;8.93;7.30;;;11.00;77.20;;;;;;5062083;28;20036;-68
2022/02/28 08:17:34;;;;;;;8.70;6.85;;;11.10;74.30;;;;;;5079441;28;20032;-68
2022/02/28 08:20:00;;;;;;;9.93;7.10;;;11.40;73.90;;;;;;5064556;28;20516;-68
2022/02/28 08:22:25;;;;;;;8.65;6.63;;;11.70;72.40;;;;;;5065955;28;20045;-68
2022/02/28 08:24:51;;;;;;;7.32;6.63;;;12.10;73.30;;;;;;5064965;28;20056;-68
2022/02/28 08:27:17;;;;;;;13.60;7.68;;;12.30;68.00;;;;;;5079920;28;20035;-68
2022/02/28 08:29:43;;;;;;;10.00;6.78;;;12.40;68.50;;;;;;5083555;28;20491;-68
2022/02/28 08:32:09;;;;;;;8.30;7.05;;;12.50;68.40;;;;;;5062691;28;20047;-68
2022/02/28 08:34:34;;;;;;;8.43;7.32;;;12.90;67.20;;;;;;5061474;28;20484;-68
2022/02/28 08:37:00;;;;;;;10.25;6.90;;;13.30;65.90;;;;;;5080918;28;20036;-68
2022/02/28 08:39:26;;;;;;;10.45;6.50;;;13.50;64.40;;;;;;5078901;28;20098;-69
2022/02/28 08:41:51;;;;;;;8.07;7.20;;;13.80;62.70;;;;;;5063203;28;20085;-68
2022/02/28 08:44:17;;;;;;;9.18;7.45;;;14.20;62.40;;;;;;5062323;28;20111;-68
2022/02/28 08:46:43;;;;;;;7.30;6.53;;;14.40;61.00;;;;;;5066345;28;20036;-68
2022/02/28 08:49:09;;;;;;;8.52;6.82;;;14.60;59.60;;;;;;5081729;28;20115;-68
2022/02/28 08:51:35;;;;;;;7.25;6.55;;;14.60;59.00;;;;;;5074081;28;20080;-68
2022/02/28 08:54:00;;;;;;;8.85;6.70;;;14.80;58.60;;;;;;5078602;28;20039;-69
2022/02/28 08:56:26;;;;;;;9.27;7.45;;;15.00;58.20;;;;;;5059391;28;20047;-69
2022/02/28 08:58:52;;;;;;;7.72;6.40;;;15.10;56.30;;;;;;5058196;28;20148;-69
2022/02/28 09:01:18;;;;;;;8.30;6.63;;;15.30;56.20;;;;;;5078897;28;20044;-69
2022/02/28 09:03:43;;;;;;;6.95;6.20;;;15.30;56.20;;;;;;5060089;28;20123;-69
2022/02/28 09:06:09;;;;;;;8.88;6.43;;;15.50;55.90;;;;;;5079500;28;20036;-69
2022/02/28 09:08:35;;;;;;;8.63;6.70;;;15.70;55.50;;;;;;5062904;28;20035;-69
2022/02/28 09:11:00;;;;;;;9.43;6.50;;;16.00;54.50;;;;;;5076253;28;20569;-69
2022/02/28 09:13:26;;;;;;;8.20;6.55;;;16.20;53.60;;;;;;5078095;28;20036;-69
2022/02/28 09:15:52;;;;;;;7.82;6.32;;;16.20;52.30;;;;;;5086246;28;20051;-69
2022/02/28 09:18:18;;;;;;;6.60;5.93;;;16.30;52.20;;;;;;5077727;28;20143;-69
2022/02/28 09:20:44;;;;;;;7.25;6.22;;;16.20;52.40;;;;;;5079791;28;20098;-69
2022/02/28 09:23:10;;;;;;;8.07;6.30;;;16.30;51.80;;;;;;5081136;28;20119;-69
2022/02/28 09:25:35;;;;;;;7.13;6.47;;;16.50;52.10;;;;;;5083081;28;20241;-69
2022/02/28 09:28:01;;;;;;;8.60;5.90;;;16.60;50.90;;;;;;5064360;28;20058;-69
2022/02/28 09:30:27;;;;;;;7.03;5.50;;;16.60;50.50;;;;;;5086755;28;20040;-69
2022/02/28 09:32:53;;;;;;;7.53;6.40;;;16.50;50.00;;;;;;5081050;28;20047;-69
2022/02/28 09:35:19;;;;;;;9.73;6.57;;;16.30;48.50;;;;;;5081895;28;20145;-69
2022/02/28 09:37:45;;;;;;;6.47;5.75;;;16.00;48.50;;;;;;5083559;28;20332;-69
2022/02/28 09:40:11;;;;;;;7.20;6.50;;;15.90;49.00;;;;;;5068228;28;20044;-69
2022/02/28 09:42:38;;;;;;;7.97;6.28;;;16.10;49.90;;;;;;5060235;28;20036;-69
2022/02/28 09:45:05;;;;;;;6.78;5.90;;;16.30;49.60;;;;;;5078392;28;20398;-69
2022/02/28 09:47:31;;;;;;;8.70;6.00;;;16.30;48.60;;;;;;5065606;28;20075;-69
2022/02/28 09:49:57;;;;;;;7.65;5.93;;;16.40;48.80;;;;;;5050183;28;20113;-69
2022/02/28 09:52:23;;;;;;;8.48;5.75;;;16.50;48.20;;;;;;5066148;28;20558;-69
2022/02/28 09:54:50;;;;;;;7.78;5.80;;;16.50;47.60;;;;;;5067240;28;20036;-70
2022/02/28 09:57:18;;;;;;;6.30;5.60;;;16.40;47.40;;;;;;5086351;28;20051;-70
2022/02/28 09:59:44;;;;;;;9.07;6.00;;;16.40;47.00;;;;;;5082200;28;20042;-70
2022/02/28 10:02:10;;;;;;;6.88;6.13;;;16.30;47.70;;;;;;5067468;28;20032;-70
2022/02/28 10:04:36;;;;;;;6.18;5.57;;;16.40;47.50;;;;;;5077792;28;20102;-70
2022/02/28 10:07:21;;;;;;;7.50;5.85;;;16.30;46.80;;;;;;5062283;28;20106;-70
2022/02/28 10:10:00;;;;;;;6.88;5.57;;;16.30;46.30;;;;;;5067049;28;20040;-70
2022/02/28 10:12:30;;;;;;;8.07;6.22;;;16.30;46.20;;;;;;5066643;28;20079;-70
2022/02/28 10:15:02;;;;;;;7.22;6.13;;;16.30;46.60;;;;;;5084394;28;20047;-70
2022/02/28 10:17:50;;;;;;;7.68;5.93;;;16.50;46.70;;;;;;5064701;28;20098;-67
2022/02/28 10:20:24;;;;;;;8.15;6.43;;;16.50;46.70;;;;;;5064176;28;20037;-69
2022/02/28 10:22:58;;;;;;;7.00;5.80;;;16.40;45.90;;;;;;5083154;28;20071;-69
2022/02/28 10:25:36;;;;;;;6.82;5.78;;;16.40;46.70;;;;;;5079902;28;20079;-69
2022/02/28 10:28:13;;;;;;;6.30;5.70;;;16.70;46.50;;;;;;5083964;28;20515;-69
2022/02/28 10:30:48;;;;;;;6.65;5.93;;;17.00;45.30;;;;;;5081439;28;20108;-70
2022/02/28 10:33:14;;;;;;;8.30;5.78;;;17.00;44.90;;;;;;5065846;28;20035;-70
2022/02/28 10:36:00;;;;;;;6.97;5.93;;;16.80;45.10;;;;;;5088311;28;20484;-70
2022/02/28 10:38:28;;;;;;;6.80;6.07;;;16.60;44.50;;;;;;5079748;28;20060;-70
2022/02/28 10:40:54;;;;;;;7.60;6.25;;;16.50;45.70;;;;;;5085165;28;20720;-70
2022/02/28 10:43:26;;;;;;;6.63;5.93;;;16.70;45.60;;;;;;5068402;28;20039;-69
2022/02/28 10:45:53;;;;;;;8.85;6.47;;;16.70;45.30;;;;;;5079805;28;20048;-69
2022/02/28 10:48:19;;;;;;;7.95;6.10;;;16.70;45.00;;;;;;5084467;28;20039;-69
2022/02/28 10:50:45;;;;;;;6.57;5.85;;;16.80;45.50;;;;;;5083797;28;20032;-70
2022/02/28 10:53:12;;;;;;;8.07;6.20;;;16.80;44.50;;;;;;5085687;28;20043;-70
2022/02/28 10:55:39;;;;;;;6.78;6.07;;;16.50;45.00;;;;;;5060909;28;20146;-70
2022/02/28 10:58:09;;;;;;;6.78;6.07;;;16.30;44.10;;;;;;5082306;28;20477;-69
2022/02/28 11:01:00;;;;;;;6.95;6.25;;;16.10;44.80;;;;;;5063180;28;20420;-69
2022/02/28 11:03:42;;;;;;;7.45;6.25;;;16.20;45.10;;;;;;5065547;28;20055;-69
2022/02/28 11:06:09;;;;;;;7.68;5.82;;;16.30;45.70;;;;;;5070225;28;20067;-69
2022/02/28 11:08:42;;;;;;;6.72;6.07;;;16.60;45.10;;;;;;5081541;28;20032;-69
2022/02/28 11:11:13;;;;;;;6.50;5.87;;;16.40;44.60;;;;;;5082110;28;20437;-69
2022/02/28 11:13:41;;;;;;;8.68;6.55;;;16.60;44.80;;;;;;5083119;28;20415;-69
2022/02/28 11:16:09;;;;;;;6.65;5.95;;;16.80;44.70;;;;;;5062866;28;20496;-69
2022/02/28 11:18:37;;;;;;;9.23;6.72;;;17.00;45.10;;;;;;5066972;28;20055;-69
2022/02/28 11:21:03;;;;;;;7.07;6.07;;;17.20;44.40;;;;;;5080670;28;20133;-69
2022/02/28 11:23:29;;;;;;;7.30;6.10;;;17.10;43.70;;;;;;5075808;28;20115;-69
2022/02/28 11:25:56;;;;;;;7.32;6.32;;;17.10;43.80;;;;;;5081963;28;20123;-69
2022/02/28 11:28:21;;;;;;;7.50;6.25;;;17.30;43.40;;;;;;5083536;28;20044;-69
2022/02/28 11:30:48;;;;;;;6.60;5.88;;;17.40;43.80;;;;;;5080679;28;20063;-69
2022/02/28 11:33:16;;;;;;;6.90;6.20;;;17.50;43.90;;;;;;5066093;28;20036;-69
2022/02/28 11:35:50;;;;;;;7.50;6.13;;;17.60;43.70;;;;;;5082057;28;20044;-69
2022/02/28 11:38:19;;;;;;;8.55;6.88;;;17.70;44.20;;;;;;5061142;28;20094;-69
2022/02/28 11:41:05;;;;;;;8.80;7.30;;;17.70;44.00;;;;;;5066091;28;20041;-69
2022/02/28 11:43:35;;;;;;;7.35;6.47;;;17.90;44.00;;;;;;5076469;28;20056;-69
2022/02/28 11:46:11;;;;;;;7.60;6.80;;;18.00;44.50;;;;;;5063076;28;20808;-69
2022/02/28 11:48:54;;;;;;;7.90;6.30;;;17.90;43.10;;;;;;5061824;28;20497;-69
2022/02/28 11:51:31;;;;;;;7.90;7.00;;;17.60;43.20;;;;;;5080143;28;21287;-69
2022/02/28 11:54:16;;;;;;;7.75;6.68;;;17.40;43.70;;;;;;5058950;28;20078;-69
2022/02/28 11:56:44;;;;;;;7.78;6.85;;;17.40;43.90;;;;;;5046984;28;20052;-69
2022/02/28 11:59:13;;;;;;;8.73;6.82;;;17.40;43.30;;;;;;5074180;28;20040;-69
2022/02/28 12:01:57;;;;;;;7.60;6.57;;;17.40;43.40;;;;;;5076710;28;20039;-69
2022/02/28 12:04:31;;;;;;;8.82;6.78;;;17.50;43.70;;;;;;5058720;28;20048;-70
2022/02/28 12:07:06;;;;;;;7.28;6.57;;;17.40;43.40;;;;;;5060923;28;20512;-69
2022/02/28 12:09:38;;;;;;;7.65;6.93;;;17.50;43.80;;;;;;5059129;28;20527;-69
2022/02/28 12:12:27;;;;;;;7.18;6.45;;;17.50;43.90;;;;;;5057772;28;20068;-69
2022/02/28 12:15:03;;;;;;;9.43;6.72;;;17.70;42.90;;;;;;5048364;28;20052;-69
2022/02/28 12:17:35;;;;;;;8.15;7.35;;;17.60;43.30;;;;;;5055751;28;20056;-69
2022/02/28 12:20:16;;;;;;;8.68;6.80;;;17.80;43.10;;;;;;5061275;28;20093;-69
2022/02/28 12:25:45;;;;;;;8.57;6.70;;;17.80;43.20;;;;;;5062420;28;20054;-69
2022/02/28 12:28:25;;;;;;;7.10;6.13;;;17.90;43.00;;;;;;5057559;28;20131;-69
2022/02/28 12:30:57;;;;;;;7.28;6.15;;;18.00;42.50;;;;;;5077039;28;20043;-69
2022/02/28 12:33:43;;;;;;;6.45;5.75;;;17.90;41.80;;;;;;5040144;28;20044;-69
2022/02/28 12:36:16;;;;;;;6.97;5.68;;;17.70;41.60;;;;;;5054635;28;20097;-69
2022/02/28 12:38:48;;;;;;;6.95;5.95;;;17.60;41.40;;;;;;5063272;28;20840;-69
2022/02/28 12:41:32;;;;;;;8.23;6.68;;;17.50;41.40;;;;;;5059021;28;20123;-69
2022/02/28 12:44:00;;;;;;;8.90;5.82;;;17.50;42.30;;;;;;5054624;28;20045;-69
2022/02/28 12:46:35;;;;;;;6.93;6.20;;;17.50;41.60;;;;;;5060908;28;20075;-69
2022/02/28 12:49:01;;;;;;;8.70;6.43;;;17.20;42.00;;;;;;5082195;28;20503;-69
2022/02/28 12:51:30;;;;;;;9.60;6.30;;;17.20;42.20;;;;;;5045034;28;20116;-69